Time;durP1;ratioP1;P1;durP2;ratioP2;P2;SDS_P1;SDS_P2;PMS_P1;PMS_P2;Temp;Humidity;BMP_temperature;BMP_pressure;BME280_temperature;BME280_humidity;BME280_pressure;Samples;Min_cycle;Max_cycle;Signal;HPM_P1;HPM_P2
2021/09/21 00:01:44;;;;;;;8.23;4.63;;;;;;;;;;2627377;30;20778;-75
2021/09/21 00:04:10;;;;;;;6.73;5.70;;;;;;;;;;2627813;38;20944;-75
2021/09/21 00:06:36;;;;;;;8.03;6.03;;;;;;;;;;2628351;30;20364;-75
2021/09/21 00:09:02;;;;;;;5.70;5.20;;;;;;;;;;2628884;30;20382;-75
2021/09/21 00:11:28;;;;;;;6.30;4.90;;;;;;;;;;2629634;30;20370;-75
2021/09/21 00:13:54;;;;;;;6.50;5.00;;;;;;;;;;2627998;30;20398;-75
2021/09/21 00:16:20;;;;;;;8.73;4.77;;;;;;;;;;2627888;38;20421;-75
2021/09/21 00:18:47;;;;;;;8.00;5.40;;;;;;;;;;2629360;30;20775;-75
2021/09/21 00:21:13;;;;;;;6.30;5.10;;;;;;;;;;2629849;30;20953;-76
2021/09/21 00:23:39;;;;;;;7.37;6.20;;;;;;;;;;2628199;38;20530;-75
2021/09/21 00:26:05;;;;;;;6.50;5.57;;;;;;;;;;2628430;30;20367;-75
2021/09/21 00:28:31;;;;;;;6.23;5.63;;;;;;;;;;2628490;30;20973;-75
2021/09/21 00:31:03;;;;;;;9.27;6.33;;;;;;;;;;2629565;30;20867;-75
2021/09/21 00:33:46;;;;;;;7.60;5.13;;;;;;;;;;2629243;38;20455;-75
2021/09/21 00:36:12;;;;;;;8.93;4.90;;;;;;;;;;2629059;30;20371;-75
2021/09/21 00:38:38;;;;;;;5.63;5.10;;;;;;;;;;2628899;30;20363;-75
2021/09/21 00:41:04;;;;;;;6.83;5.23;;;;;;;;;;2629167;30;20366;-75
2021/09/21 00:43:30;;;;;;;6.30;5.17;;;;;;;;;;2627475;38;20367;-75
2021/09/21 00:45:56;;;;;;;6.67;6.13;;;;;;;;;;2629257;30;20370;-75
2021/09/21 00:48:22;;;;;;;6.80;6.10;;;;;;;;;;2629748;30;20332;-75
2021/09/21 00:50:49;;;;;;;6.03;5.43;;;;;;;;;;2628593;30;20359;-75
2021/09/21 00:53:15;;;;;;;6.93;5.40;;;;;;;;;;2626531;38;20474;-75
2021/09/21 00:55:42;;;;;;;6.20;5.40;;;;;;;;;;2628794;30;20351;-75
2021/09/21 00:58:08;;;;;;;5.33;4.83;;;;;;;;;;2628744;30;20798;-75
2021/09/21 01:00:36;;;;;;;8.67;5.80;;;;;;;;;;2628952;30;20385;-75
2021/09/21 01:03:02;;;;;;;7.37;5.73;;;;;;;;;;2630486;30;20370;-76
2021/09/21 01:05:29;;;;;;;9.23;5.40;;;;;;;;;;2622692;30;20793;-73
2021/09/21 01:07:55;;;;;;;7.50;6.20;;;;;;;;;;2627728;30;20358;-73
2021/09/21 01:10:24;;;;;;;7.37;5.23;;;;;;;;;;2628071;30;20444;-73
2021/09/21 01:12:51;;;;;;;6.33;5.73;;;;;;;;;;2627133;38;20367;-73
2021/09/21 01:15:17;;;;;;;7.30;6.00;;;;;;;;;;2628695;30;21180;-74
2021/09/21 01:17:43;;;;;;;7.17;5.60;;;;;;;;;;2628699;30;20971;-73
2021/09/21 01:20:10;;;;;;;8.70;4.97;;;;;;;;;;2627256;38;20363;-73
2021/09/21 01:22:36;;;;;;;8.43;6.30;;;;;;;;;;2628387;30;20351;-73
2021/09/21 01:25:03;;;;;;;9.43;6.40;;;;;;;;;;2628653;30;20918;-73
2021/09/21 01:27:29;;;;;;;9.30;6.37;;;;;;;;;;2628755;38;20367;-73
2021/09/21 01:29:55;;;;;;;6.70;5.93;;;;;;;;;;2627986;30;20967;-73
2021/09/21 01:32:22;;;;;;;8.60;6.60;;;;;;;;;;2628102;30;20354;-73
2021/09/21 01:34:49;;;;;;;7.17;5.77;;;;;;;;;;2627938;30;20504;-73
2021/09/21 01:37:15;;;;;;;8.10;6.60;;;;;;;;;;2628580;30;20912;-73
2021/09/21 01:39:41;;;;;;;7.07;6.47;;;;;;;;;;2627685;30;20878;-73
2021/09/21 01:42:07;;;;;;;7.87;5.97;;;;;;;;;;2628545;30;20343;-73
2021/09/21 01:44:33;;;;;;;6.83;6.20;;;;;;;;;;2626675;30;20905;-73
2021/09/21 01:47:03;;;;;;;6.97;5.60;;;;;;;;;;2627694;30;20386;-73
2021/09/21 01:49:36;;;;;;;6.40;5.70;;;;;;;;;;2628827;30;20371;-73
2021/09/21 01:59:48;;;;;;;9.93;7.07;;;;;;;;;;2626064;38;20919;-73
2021/09/21 02:02:14;;;;;;;6.63;6.00;;;;;;;;;;2627832;30;20351;-73
2021/09/21 02:04:40;;;;;;;8.53;6.50;;;;;;;;;;2628015;38;20467;-73
2021/09/21 02:07:06;;;;;;;9.20;6.83;;;;;;;;;;2627394;30;20425;-73
2021/09/21 02:09:32;;;;;;;7.00;6.30;;;;;;;;;;2626120;30;20351;-73
2021/09/21 02:11:58;;;;;;;9.40;6.27;;;;;;;;;;2625721;30;20343;-73
2021/09/21 02:14:24;;;;;;;11.97;6.70;;;;;;;;;;2626909;30;20396;-73
2021/09/21 02:16:54;;;;;;;8.57;6.97;;;;;;;;;;2626795;38;20344;-73
2021/09/21 02:19:20;;;;;;;6.00;5.40;;;;;;;;;;2627977;38;20369;-73
2021/09/21 02:21:46;;;;;;;6.50;5.90;;;;;;;;;;2629098;30;20905;-73
2021/09/21 02:24:19;;;;;;;7.60;5.90;;;;;;;;;;2626780;31;20351;-73
2021/09/21 02:26:45;;;;;;;8.57;6.40;;;;;;;;;;2627971;38;20398;-73
2021/09/21 02:29:11;;;;;;;7.53;6.70;;;;;;;;;;2628192;30;20938;-73
2021/09/21 02:31:38;;;;;;;7.47;6.77;;;;;;;;;;2628594;30;20354;-73
2021/09/21 02:34:04;;;;;;;8.60;6.57;;;;;;;;;;2627629;30;20351;-73
2021/09/21 02:36:30;;;;;;;7.60;5.63;;;;;;;;;;2628131;30;20367;-73
2021/09/21 02:38:56;;;;;;;12.40;8.53;;;;;;;;;;2626479;38;20432;-73
2021/09/21 02:41:22;;;;;;;7.90;7.10;;;;;;;;;;2628961;30;20413;-73
2021/09/21 02:43:48;;;;;;;8.00;7.30;;;;;;;;;;2628352;30;21061;-73
2021/09/21 02:46:15;;;;;;;7.40;6.50;;;;;;;;;;2627874;38;20871;-73
2021/09/21 02:48:41;;;;;;;7.80;6.63;;;;;;;;;;2627121;38;20402;-73
2021/09/21 02:51:07;;;;;;;6.80;6.20;;;;;;;;;;2628723;30;20398;-73
2021/09/21 02:53:33;;;;;;;10.60;7.00;;;;;;;;;;2628071;30;20363;-73
2021/09/21 02:56:00;;;;;;;8.93;7.13;;;;;;;;;;2627996;30;20383;-72
2021/09/21 02:58:26;;;;;;;9.93;6.97;;;;;;;;;;2626771;38;20394;-73
2021/09/21 03:00:55;;;;;;;9.27;8.17;;;;;;;;;;2627683;30;20462;-73
2021/09/21 03:03:23;;;;;;;15.23;8.77;;;;;;;;;;2628017;30;20367;-73
2021/09/21 03:05:56;;;;;;;13.20;8.23;;;;;;;;;;2629606;30;20784;-72
2021/09/21 03:08:23;;;;;;;7.80;7.10;;;;;;;;;;2629188;30;20390;-72
2021/09/21 03:18:29;;;;;;;11.40;7.63;;;;;;;;;;2627974;30;20389;-71
2021/09/21 03:20:55;;;;;;;15.00;8.30;;;;;;;;;;2628167;30;20890;-71
2021/09/21 03:23:21;;;;;;;9.17;8.20;;;;;;;;;;2625936;30;20943;-72
2021/09/21 03:25:47;;;;;;;9.03;8.13;;;;;;;;;;2625670;38;20386;-72
2021/09/21 03:28:13;;;;;;;10.50;7.53;;;;;;;;;;2626531;30;20367;-73
2021/09/21 03:30:39;;;;;;;11.10;7.73;;;;;;;;;;2626857;30;20382;-72
2021/09/21 03:33:06;;;;;;;9.50;7.33;;;;;;;;;;2627083;38;20355;-72
2021/09/21 03:35:32;;;;;;;8.67;7.80;;;;;;;;;;2625997;30;20367;-73
2021/09/21 03:37:58;;;;;;;9.30;7.20;;;;;;;;;;2627041;30;20359;-73
2021/09/21 03:40:24;;;;;;;9.37;7.40;;;;;;;;;;2627603;30;20759;-73
2021/09/21 03:42:50;;;;;;;9.63;8.63;;;;;;;;;;2627981;30;20346;-73
2021/09/21 03:45:17;;;;;;;8.27;7.50;;;;;;;;;;2628069;30;20368;-73
2021/09/21 03:47:43;;;;;;;9.57;8.37;;;;;;;;;;2627626;38;20471;-73
2021/09/21 03:50:09;;;;;;;9.23;7.70;;;;;;;;;;2627112;30;20382;-73
2021/09/21 03:52:35;;;;;;;8.20;7.47;;;;;;;;;;2623704;38;20421;-73
2021/09/21 03:55:03;;;;;;;10.30;7.70;;;;;;;;;;2627503;30;20393;-72
2021/09/21 03:57:29;;;;;;;9.40;8.40;;;;;;;;;;2627873;30;20366;-72
2021/09/21 03:59:56;;;;;;;11.63;8.27;;;;;;;;;;2626873;30;20370;-72
2021/09/21 04:02:22;;;;;;;15.87;8.27;;;;;;;;;;2627581;38;20454;-72
2021/09/21 04:04:48;;;;;;;10.50;7.90;;;;;;;;;;2626965;30;20387;-73
2021/09/21 04:07:14;;;;;;;11.40;7.67;;;;;;;;;;2628336;30;20355;-72
2021/09/21 04:09:40;;;;;;;13.77;8.30;;;;;;;;;;2628515;30;20363;-72
2021/09/21 04:12:06;;;;;;;10.17;8.30;;;;;;;;;;2627326;38;20514;-72
2021/09/21 04:14:33;;;;;;;8.97;8.07;;;;;;;;;;2627296;30;20414;-72
2021/09/21 04:16:59;;;;;;;13.90;8.67;;;;;;;;;;2627992;30;20355;-73
2021/09/21 04:19:25;;;;;;;16.53;8.47;;;;;;;;;;2626993;30;20347;-73
2021/09/21 04:21:51;;;;;;;9.47;8.40;;;;;;;;;;2628072;30;20466;-72
2021/09/21 04:24:17;;;;;;;9.37;7.77;;;;;;;;;;2627086;30;20427;-72
2021/09/21 04:26:43;;;;;;;10.27;8.50;;;;;;;;;;2627767;30;20383;-73
2021/09/21 04:29:10;;;;;;;8.63;7.60;;;;;;;;;;2624697;30;20933;-73
2021/09/21 04:31:41;;;;;;;11.93;7.97;;;;;;;;;;2627959;30;20394;-72
2021/09/21 04:34:07;;;;;;;8.50;7.23;;;;;;;;;;2628014;30;20390;-72
2021/09/21 04:36:33;;;;;;;10.23;7.70;;;;;;;;;;2626079;38;20379;-72
2021/09/21 04:38:59;;;;;;;9.27;7.30;;;;;;;;;;2626428;30;20941;-72
2021/09/21 04:41:25;;;;;;;13.10;9.30;;;;;;;;;;2628804;30;20363;-73
2021/09/21 04:43:51;;;;;;;19.63;9.43;;;;;;;;;;2628438;30;20450;-73
2021/09/21 04:46:17;;;;;;;15.37;9.23;;;;;;;;;;2628730;30;20402;-73
2021/09/21 04:48:43;;;;;;;12.33;9.90;;;;;;;;;;2626943;38;20594;-73
2021/09/21 04:51:09;;;;;;;11.57;8.20;;;;;;;;;;2628059;30;20387;-73
2021/09/21 04:53:35;;;;;;;12.37;11.07;;;;;;;;;;2627130;30;20390;-73
2021/09/21 04:56:01;;;;;;;12.00;10.80;;;;;;;;;;2627167;30;20344;-73
2021/09/21 04:58:27;;;;;;;14.10;11.20;;;;;;;;;;2627603;30;20386;-73
2021/09/21 05:00:54;;;;;;;13.10;11.80;;;;;;;;;;2626571;38;20370;-73
2021/09/21 05:03:20;;;;;;;20.43;11.17;;;;;;;;;;2628219;30;20359;-72
2021/09/21 05:05:46;;;;;;;13.03;10.80;;;;;;;;;;2628753;30;20417;-72
2021/09/21 05:08:12;;;;;;;14.17;12.33;;;;;;;;;;2628877;30;20844;-72
2021/09/21 05:10:39;;;;;;;18.07;12.33;;;;;;;;;;2628819;30;20355;-74
2021/09/21 05:13:05;;;;;;;14.10;11.63;;;;;;;;;;2627763;30;20371;-74
2021/09/21 05:15:31;;;;;;;21.57;10.17;;;;;;;;;;2626452;30;20411;-73
2021/09/21 05:17:57;;;;;;;13.10;10.47;;;;;;;;;;2626123;30;20370;-73
2021/09/21 05:20:23;;;;;;;13.10;8.90;;;;;;;;;;2626913;38;20933;-72
2021/09/21 05:22:52;;;;;;;11.43;9.03;;;;;;;;;;2627359;30;20363;-72
2021/09/21 05:25:19;;;;;;;16.13;9.97;;;;;;;;;;2625802;38;20355;-72
2021/09/21 05:27:45;;;;;;;15.33;9.00;;;;;;;;;;2624957;30;20359;-72
2021/09/21 05:30:12;;;;;;;12.00;9.90;;;;;;;;;;2625179;30;20488;-73
2021/09/21 05:32:38;;;;;;;19.47;10.00;;;;;;;;;;2625917;30;20382;-75
2021/09/21 05:35:04;;;;;;;23.60;11.30;;;;;;;;;;2625686;38;20379;-73
2021/09/21 05:37:31;;;;;;;17.33;10.47;;;;;;;;;;2626520;30;20326;-73
2021/09/21 05:39:57;;;;;;;19.10;11.83;;;;;;;;;;2624387;38;20893;-71
2021/09/21 05:42:23;;;;;;;15.83;10.57;;;;;;;;;;2623314;30;20379;-71
2021/09/21 05:44:49;;;;;;;16.00;10.60;;;;;;;;;;2623146;30;20794;-72
2021/09/21 05:47:15;;;;;;;13.87;11.80;;;;;;;;;;2623361;30;20432;-72
2021/09/21 05:49:42;;;;;;;15.10;9.70;;;;;;;;;;2622337;30;20366;-72
2021/09/21 05:52:08;;;;;;;16.47;11.60;;;;;;;;;;2622155;30;20379;-73
2021/09/21 05:54:34;;;;;;;13.87;11.00;;;;;;;;;;2619796;38;20338;-74
2021/09/21 05:57:00;;;;;;;12.03;10.87;;;;;;;;;;2622464;30;20381;-73
2021/09/21 05:59:26;;;;;;;15.37;11.23;;;;;;;;;;2622894;30;20363;-74
2021/09/21 06:01:52;;;;;;;14.33;12.50;;;;;;;;;;2622865;38;20363;-72
2021/09/21 06:04:18;;;;;;;20.03;13.00;;;;;;;;;;2621813;30;20510;-72
2021/09/21 06:06:44;;;;;;;19.97;13.27;;;;;;;;;;2642044;30;20355;-73
2021/09/21 06:09:10;;;;;;;15.73;11.73;;;;;;;;;;2623066;38;20419;-72
2021/09/21 06:11:37;;;;;;;14.27;12.57;;;;;;;;;;2623953;30;21095;-72
2021/09/21 06:14:03;;;;;;;17.50;15.20;;;;;;;;;;2622460;38;20373;-72
2021/09/21 06:16:29;;;;;;;17.80;15.90;;;;;;;;;;2623426;30;21038;-72
2021/09/21 06:18:56;;;;;;;20.70;16.80;;;;;;;;;;2625649;30;20943;-72
2021/09/21 06:21:22;;;;;;;24.13;15.23;;;;;;;;;;2624657;30;20546;-72
2021/09/21 06:23:48;;;;;;;21.70;13.70;;;;;;;;;;2622615;30;20398;-71
2021/09/21 06:26:14;;;;;;;18.10;13.20;;;;;;;;;;2624069;30;20371;-72
2021/09/21 06:28:40;;;;;;;14.27;12.00;;;;;;;;;;2622460;30;20910;-72
2021/09/21 06:31:06;;;;;;;12.17;10.97;;;;;;;;;;2624998;30;20977;-72
2021/09/21 06:33:32;;;;;;;13.87;9.30;;;;;;;;;;2622643;30;20397;-72
2021/09/21 06:35:58;;;;;;;13.30;9.70;;;;;;;;;;2621524;38;20865;-72
2021/09/21 06:38:24;;;;;;;11.00;9.40;;;;;;;;;;2625153;30;20354;-71
2021/09/21 06:40:50;;;;;;;12.00;9.60;;;;;;;;;;2624076;30;20426;-72
2021/09/21 06:43:16;;;;;;;13.30;8.60;;;;;;;;;;2623596;30;20877;-73
2021/09/21 06:45:42;;;;;;;11.70;8.90;;;;;;;;;;2626921;30;20359;-73
2021/09/21 06:48:09;;;;;;;10.40;9.07;;;;;;;;;;2625365;30;21002;-73
2021/09/21 06:50:35;;;;;;;16.63;8.80;;;;;;;;;;2625443;30;20976;-73
2021/09/21 06:53:01;;;;;;;10.00;9.00;;;;;;;;;;2625112;30;20910;-73
2021/09/21 06:55:27;;;;;;;11.53;10.00;;;;;;;;;;2623346;38;20387;-73
2021/09/21 06:57:56;;;;;;;11.37;8.73;;;;;;;;;;2624980;30;20367;-73
2021/09/21 07:00:22;;;;;;;12.73;9.93;;;;;;;;;;2623502;38;20417;-73
2021/09/21 07:02:52;;;;;;;9.63;8.63;;;;;;;;;;2624939;38;20977;-73
2021/09/21 07:05:18;;;;;;;13.67;8.80;;;;;;;;;;2626275;30;20804;-73
2021/09/21 07:07:45;;;;;;;11.70;8.50;;;;;;;;;;2625612;30;20359;-73
2021/09/21 07:10:12;;;;;;;9.43;8.20;;;;;;;;;;2624744;30;20904;-73
2021/09/21 07:12:39;;;;;;;9.93;8.20;;;;;;;;;;2623150;38;21202;-73
2021/09/21 07:15:05;;;;;;;9.40;7.90;;;;;;;;;;2626014;30;20832;-72
2021/09/21 07:17:31;;;;;;;15.10;8.80;;;;;;;;;;2626142;30;20434;-73
2021/09/21 07:19:57;;;;;;;14.50;9.03;;;;;;;;;;2625216;30;20354;-73
2021/09/21 07:22:23;;;;;;;11.17;8.93;;;;;;;;;;2624898;30;20394;-73
2021/09/21 07:24:50;;;;;;;12.90;8.97;;;;;;;;;;2626082;30;20377;-72
2021/09/21 07:27:16;;;;;;;9.97;8.73;;;;;;;;;;2626786;30;20894;-72
2021/09/21 07:29:42;;;;;;;9.97;8.53;;;;;;;;;;2625278;30;20450;-72
2021/09/21 07:32:09;;;;;;;10.57;9.57;;;;;;;;;;2624171;38;20386;-72
2021/09/21 07:34:35;;;;;;;10.73;9.70;;;;;;;;;;2624673;38;20482;-72
2021/09/21 07:37:02;;;;;;;9.53;8.40;;;;;;;;;;2625746;30;20362;-73
2021/09/21 07:39:28;;;;;;;11.30;8.40;;;;;;;;;;2626094;30;20780;-73
2021/09/21 07:41:54;;;;;;;12.43;10.00;;;;;;;;;;2624709;30;20877;-73
2021/09/21 07:44:20;;;;;;;18.53;10.60;;;;;;;;;;2624324;38;20374;-73
2021/09/21 07:46:46;;;;;;;13.07;9.73;;;;;;;;;;2624676;38;20367;-73
2021/09/21 07:49:13;;;;;;;12.83;10.50;;;;;;;;;;2624111;38;20371;-73
2021/09/21 07:51:40;;;;;;;14.80;11.00;;;;;;;;;;2626030;30;21136;-73
2021/09/21 07:54:07;;;;;;;17.40;12.33;;;;;;;;;;2624814;30;20390;-72
2021/09/21 07:56:34;;;;;;;14.80;10.90;;;;;;;;;;2624432;38;20366;-72
2021/09/21 07:59:01;;;;;;;19.30;11.53;;;;;;;;;;2622988;38;20379;-73
2021/09/21 08:01:27;;;;;;;17.70;12.97;;;;;;;;;;2625381;38;20364;-72
2021/09/21 08:03:55;;;;;;;21.80;14.57;;;;;;;;;;2624819;30;20870;-72
2021/09/21 08:06:21;;;;;;;25.23;15.37;;;;;;;;;;2625158;30;20399;-73
2021/09/21 08:08:47;;;;;;;20.53;13.70;;;;;;;;;;2625277;38;20426;-73
2021/09/21 08:11:13;;;;;;;31.63;16.40;;;;;;;;;;2623086;38;20478;-72
2021/09/21 08:13:39;;;;;;;21.67;13.17;;;;;;;;;;2623948;30;20358;-72
2021/09/21 08:16:05;;;;;;;19.30;14.70;;;;;;;;;;2624646;38;20386;-72
2021/09/21 08:18:31;;;;;;;15.67;12.10;;;;;;;;;;2623713;38;20355;-72
2021/09/21 08:20:57;;;;;;;11.03;9.90;;;;;;;;;;2622281;30;20462;-72
2021/09/21 08:23:24;;;;;;;16.53;9.60;;;;;;;;;;2624910;30;20343;-73
2021/09/21 08:25:50;;;;;;;9.13;8.20;;;;;;;;;;2625620;30;20367;-74
2021/09/21 08:28:17;;;;;;;12.50;9.27;;;;;;;;;;2624357;30;20413;-73
2021/09/21 08:30:43;;;;;;;16.97;9.03;;;;;;;;;;2624366;30;20339;-74
2021/09/21 08:33:09;;;;;;;10.23;8.67;;;;;;;;;;2625881;30;20394;-74
2021/09/21 08:35:35;;;;;;;8.90;8.00;;;;;;;;;;2625540;38;20382;-74
2021/09/21 08:38:02;;;;;;;8.57;7.67;;;;;;;;;;2626397;38;20929;-73
2021/09/21 08:40:30;;;;;;;9.60;7.50;;;;;;;;;;2627444;30;20857;-73
2021/09/21 08:42:56;;;;;;;14.37;7.70;;;;;;;;;;2625414;38;20417;-74
2021/09/21 08:45:22;;;;;;;9.93;7.53;;;;;;;;;;2625823;30;20355;-74
2021/09/21 08:47:48;;;;;;;13.50;7.03;;;;;;;;;;2626908;38;20391;-73
2021/09/21 08:50:14;;;;;;;9.13;8.13;;;;;;;;;;2626350;38;20386;-73
2021/09/21 08:52:41;;;;;;;6.73;6.23;;;;;;;;;;2627847;30;20418;-73
2021/09/21 08:55:09;;;;;;;7.40;6.43;;;;;;;;;;2627023;38;20466;-73
2021/09/21 08:57:36;;;;;;;6.73;6.10;;;;;;;;;;2626775;30;20897;-73
2021/09/21 09:00:04;;;;;;;7.27;6.60;;;;;;;;;;2626875;30;20912;-73
2021/09/21 09:02:30;;;;;;;7.30;6.63;;;;;;;;;;2626290;38;20374;-73
2021/09/21 09:04:59;;;;;;;6.97;6.27;;;;;;;;;;2627101;30;20395;-72
2021/09/21 09:07:25;;;;;;;9.13;7.23;;;;;;;;;;2627974;30;20927;-73
2021/09/21 09:10:02;;;;;;;7.10;6.07;;;;;;;;;;2626947;30;20879;-73
2021/09/21 09:12:32;;;;;;;10.47;6.80;;;;;;;;;;2627611;30;20998;-73
2021/09/21 09:15:01;;;;;;;7.10;5.80;;;;;;;;;;2626615;38;20448;-73
2021/09/21 09:17:27;;;;;;;9.13;5.73;;;;;;;;;;2628457;30;20362;-72
2021/09/21 09:19:53;;;;;;;6.77;6.17;;;;;;;;;;2626814;30;20865;-72
2021/09/21 09:22:23;;;;;;;8.10;6.60;;;;;;;;;;2627534;30;20477;-73
2021/09/21 09:24:56;;;;;;;10.30;6.33;;;;;;;;;;2626188;30;20391;-73
2021/09/21 09:27:48;;;;;;;9.03;8.13;;;;;;;;;;2626997;38;20891;-72
2021/09/21 09:30:16;;;;;;;11.70;8.33;;;;;;;;;;2625921;38;20478;-72
2021/09/21 09:32:46;;;;;;;10.27;9.17;;;;;;;;;;2626298;30;20382;-73
2021/09/21 09:35:21;;;;;;;7.73;6.93;;;;;;;;;;2624465;30;20378;-73
2021/09/21 09:37:47;;;;;;;8.50;7.13;;;;;;;;;;2625850;30;20363;-73
2021/09/21 09:40:13;;;;;;;8.27;7.57;;;;;;;;;;2627062;30;20347;-73
2021/09/21 09:42:40;;;;;;;8.83;7.87;;;;;;;;;;2627677;30;20351;-73
2021/09/21 09:45:07;;;;;;;8.20;6.90;;;;;;;;;;2624906;30;20363;-74
2021/09/21 09:47:42;;;;;;;8.23;7.53;;;;;;;;;;2627039;30;20383;-74
2021/09/21 09:50:12;;;;;;;6.67;6.07;;;;;;;;;;2626358;30;21055;-74
2021/09/21 09:52:38;;;;;;;6.13;5.53;;;;;;;;;;2627213;30;20393;-74
2021/09/21 09:55:05;;;;;;;5.00;4.70;;;;;;;;;;2624852;38;20957;-73
2021/09/21 09:57:31;;;;;;;4.97;4.57;;;;;;;;;;2626870;30;20406;-73
2021/09/21 09:59:58;;;;;;;6.20;5.70;;;;;;;;;;2624439;38;20937;-74
2021/09/21 10:02:25;;;;;;;6.13;5.50;;;;;;;;;;2629141;30;20850;-74
2021/09/21 10:04:51;;;;;;;8.13;5.70;;;;;;;;;;2625478;30;20394;-73
2021/09/21 10:07:18;;;;;;;5.20;4.77;;;;;;;;;;2628060;30;20938;-73
2021/09/21 10:09:45;;;;;;;5.50;5.10;;;;;;;;;;2625162;38;20391;-74
2021/09/21 10:12:12;;;;;;;7.63;5.70;;;;;;;;;;2625719;38;20347;-74
2021/09/21 10:14:40;;;;;;;7.10;6.27;;;;;;;;;;2624693;38;20458;-74
2021/09/21 10:17:07;;;;;;;7.80;6.57;;;;;;;;;;2623981;30;20366;-73
2021/09/21 10:19:35;;;;;;;7.00;6.27;;;;;;;;;;2625953;30;21186;-74
2021/09/21 10:22:01;;;;;;;6.63;6.00;;;;;;;;;;2626408;30;20481;-73
2021/09/21 10:24:31;;;;;;;8.40;6.87;;;;;;;;;;2625818;30;21042;-73
2021/09/21 10:27:04;;;;;;;8.40;6.57;;;;;;;;;;2625996;30;20363;-73
2021/09/21 10:29:30;;;;;;;7.40;6.60;;;;;;;;;;2624847;38;20390;-74
2021/09/21 10:31:57;;;;;;;7.10;6.40;;;;;;;;;;2625631;30;20355;-74
2021/09/21 10:34:23;;;;;;;9.37;6.63;;;;;;;;;;2623856;38;20908;-73
2021/09/21 10:36:49;;;;;;;6.33;5.93;;;;;;;;;;2626692;30;20382;-74
2021/09/21 10:39:15;;;;;;;6.60;6.03;;;;;;;;;;2627057;30;20351;-74
2021/09/21 10:41:57;;;;;;;7.80;5.70;;;;;;;;;;2625815;30;20474;-74
2021/09/21 10:44:23;;;;;;;6.63;6.13;;;;;;;;;;2626873;30;20829;-74
2021/09/21 10:46:51;;;;;;;8.80;6.47;;;;;;;;;;2624152;30;20893;-73
2021/09/21 10:49:31;;;;;;;6.70;6.00;;;;;;;;;;2625707;30;20347;-73
2021/09/21 10:52:00;;;;;;;8.70;6.57;;;;;;;;;;2628519;30;20355;-73
2021/09/21 10:54:39;;;;;;;6.97;6.27;;;;;;;;;;2628092;30;20456;-72
2021/09/21 10:57:06;;;;;;;7.07;6.37;;;;;;;;;;2626165;30;20358;-72
2021/09/21 10:59:32;;;;;;;9.47;7.50;;;;;;;;;;2626968;30;20974;-72
2021/09/21 11:01:58;;;;;;;7.80;7.03;;;;;;;;;;2625343;30;20387;-73
2021/09/21 11:04:26;;;;;;;6.73;6.07;;;;;;;;;;2626186;38;20539;-73
2021/09/21 11:06:52;;;;;;;7.37;5.90;;;;;;;;;;2627218;30;21102;-74
2021/09/21 11:09:25;;;;;;;7.10;6.40;;;;;;;;;;2627129;30;20883;-73
2021/09/21 11:11:51;;;;;;;7.40;6.90;;;;;;;;;;2628343;30;20358;-73
2021/09/21 11:14:20;;;;;;;7.87;6.70;;;;;;;;;;2627087;30;20366;-73
2021/09/21 11:16:56;;;;;;;6.73;6.13;;;;;;;;;;2626711;38;20359;-74
2021/09/21 11:19:28;;;;;;;6.13;5.47;;;;;;;;;;2627870;30;20347;-74
2021/09/21 11:22:08;;;;;;;7.53;6.83;;;;;;;;;;2627932;30;20968;-73
2021/09/21 11:24:34;;;;;;;6.80;6.30;;;;;;;;;;2626403;30;20390;-74
2021/09/21 11:27:02;;;;;;;6.87;5.80;;;;;;;;;;2624713;30;20379;-73
2021/09/21 11:29:29;;;;;;;7.00;6.40;;;;;;;;;;2622205;38;21024;-74
2021/09/21 11:31:55;;;;;;;6.20;5.60;;;;;;;;;;2622379;38;20355;-74
2021/09/21 11:34:24;;;;;;;6.30;5.70;;;;;;;;;;2624275;30;20362;-74
2021/09/21 11:36:50;;;;;;;5.67;5.30;;;;;;;;;;2622539;38;20943;-73
2021/09/21 11:39:17;;;;;;;8.50;6.17;;;;;;;;;;2623751;30;20356;-73
2021/09/21 11:41:44;;;;;;;7.97;7.27;;;;;;;;;;2622787;38;20359;-72
2021/09/21 11:44:10;;;;;;;10.57;6.23;;;;;;;;;;2623122;38;20354;-73
2021/09/21 11:46:36;;;;;;;6.33;5.83;;;;;;;;;;2626208;30;20363;-73
2021/09/21 11:49:03;;;;;;;7.93;7.20;;;;;;;;;;2625914;30;20440;-73
2021/09/21 11:51:34;;;;;;;9.70;7.90;;;;;;;;;;2626380;30;20944;-74
2021/09/21 11:54:00;;;;;;;6.53;6.03;;;;;;;;;;2628466;30;20890;-73
2021/09/21 11:56:26;;;;;;;7.10;6.33;;;;;;;;;;2624772;30;20470;-73
2021/09/21 11:58:59;;;;;;;10.07;9.20;;;;;;;;;;2625263;30;20806;-72
2021/09/21 12:01:26;;;;;;;7.50;6.80;;;;;;;;;;2626805;30;20385;-72
2021/09/21 12:03:55;;;;;;;7.70;7.00;;;;;;;;;;2626623;30;20417;-73
2021/09/21 12:06:32;;;;;;;7.10;6.33;;;;;;;;;;2627896;30;20434;-73
2021/09/21 12:09:00;;;;;;;7.10;6.50;;;;;;;;;;2626404;30;20378;-73
2021/09/21 12:11:27;;;;;;;8.33;6.63;;;;;;;;;;2625225;30;20749;-73
2021/09/21 12:13:53;;;;;;;6.30;5.70;;;;;;;;;;2625254;30;20785;-73
2021/09/21 12:16:20;;;;;;;6.93;6.20;;;;;;;;;;2624360;38;20375;-73
2021/09/21 12:18:46;;;;;;;7.70;6.10;;;;;;;;;;2626437;30;20371;-73
2021/09/21 12:21:14;;;;;;;9.00;6.47;;;;;;;;;;2625712;38;20390;-74
2021/09/21 12:23:42;;;;;;;7.13;6.53;;;;;;;;;;2626451;30;20359;-74
2021/09/21 12:26:08;;;;;;;6.80;6.20;;;;;;;;;;2625939;38;21051;-74
2021/09/21 12:28:36;;;;;;;6.50;6.10;;;;;;;;;;2627078;30;20446;-74
2021/09/21 12:31:21;;;;;;;6.60;6.00;;;;;;;;;;2625353;38;20367;-74
2021/09/21 16:33:21;;;;;;;7.83;4.67;;;;;;;;;;2620386;30;20411;-76
2021/09/21 16:36:04;;;;;;;3.83;3.40;;;;;;;;;;2620789;38;20530;-73
2021/09/21 16:38:30;;;;;;;9.40;3.47;;;;;;;;;;2630282;30;20823;-73
2021/09/21 16:40:56;;;;;;;3.90;3.37;;;;;;;;;;2625719;30;20956;-71
2021/09/21 16:43:23;;;;;;;3.67;3.37;;;;;;;;;;2642377;30;20472;-72
2021/09/21 16:45:49;;;;;;;5.80;3.80;;;;;;;;;;2624684;38;20379;-74
2021/09/21 16:48:15;;;;;;;4.97;4.07;;;;;;;;;;2625260;30;20363;-72
2021/09/21 16:50:42;;;;;;;6.20;5.30;;;;;;;;;;2625971;30;20355;-75
2021/09/21 16:53:08;;;;;;;7.50;3.77;;;;;;;;;;2624617;30;20402;-74
2021/09/21 16:55:35;;;;;;;5.23;3.50;;;;;;;;;;2624955;38;20382;-74
2021/09/21 16:58:01;;;;;;;4.60;3.10;;;;;;;;;;2624985;30;20537;-75
2021/09/21 17:00:31;;;;;;;3.93;3.50;;;;;;;;;;2624939;31;20379;-75
2021/09/21 17:03:03;;;;;;;8.73;4.23;;;;;;;;;;2625614;31;20441;-74
2021/09/21 17:05:29;;;;;;;6.57;3.77;;;;;;;;;;2626222;30;20410;-74
2021/09/21 17:07:56;;;;;;;5.40;4.33;;;;;;;;;;2624715;30;20407;-73
2021/09/21 17:10:22;;;;;;;5.27;3.93;;;;;;;;;;2626145;30;20402;-74
2021/09/21 17:12:48;;;;;;;5.93;4.20;;;;;;;;;;2626073;30;20389;-75
2021/09/21 17:15:14;;;;;;;6.40;4.87;;;;;;;;;;2626527;38;20494;-75
2021/09/21 17:17:40;;;;;;;7.00;5.13;;;;;;;;;;2624597;38;20386;-74
2021/09/21 17:20:07;;;;;;;14.87;10.30;;;;;;;;;;2624812;30;20494;-74
2021/09/21 17:22:33;;;;;;;13.70;7.97;;;;;;;;;;2624589;38;20351;-74
2021/09/21 17:24:59;;;;;;;8.33;7.63;;;;;;;;;;2625151;38;20395;-74
2021/09/21 17:27:26;;;;;;;16.90;15.30;;;;;;;;;;2624135;30;20374;-74
2021/09/21 17:29:52;;;;;;;11.23;10.20;;;;;;;;;;2624071;30;20402;-74
2021/09/21 17:32:18;;;;;;;13.03;11.73;;;;;;;;;;2625484;30;20474;-74
2021/09/21 17:34:44;;;;;;;14.23;8.00;;;;;;;;;;2624842;30;20374;-74
2021/09/21 17:37:10;;;;;;;8.93;6.87;;;;;;;;;;2623583;30;20406;-74
2021/09/21 17:39:39;;;;;;;13.87;12.50;;;;;;;;;;2624869;30;20371;-74
2021/09/21 17:42:05;;;;;;;10.00;5.57;;;;;;;;;;2624743;38;20971;-74
2021/09/21 17:44:31;;;;;;;10.60;9.60;;;;;;;;;;2625749;30;20855;-73
2021/09/21 17:46:57;;;;;;;10.10;6.57;;;;;;;;;;2626146;30;20351;-74
2021/09/21 17:49:23;;;;;;;11.27;6.97;;;;;;;;;;2625921;30;20502;-75
2021/09/21 17:51:50;;;;;;;10.23;7.40;;;;;;;;;;2626929;38;20970;-74
2021/09/21 17:54:17;;;;;;;5.40;4.90;;;;;;;;;;2625092;30;20391;-74
2021/09/21 17:56:43;;;;;;;6.30;4.63;;;;;;;;;;2625512;38;20386;-74
2021/09/21 17:59:09;;;;;;;8.33;7.43;;;;;;;;;;2627020;30;20347;-74
2021/09/21 18:01:35;;;;;;;7.97;6.53;;;;;;;;;;2627420;30;20910;-74
2021/09/21 18:04:03;;;;;;;7.43;6.67;;;;;;;;;;2625699;30;20414;-74
2021/09/21 18:06:29;;;;;;;9.23;6.77;;;;;;;;;;2627020;30;20366;-74
2021/09/21 18:08:55;;;;;;;10.93;8.27;;;;;;;;;;2625294;30;20903;-74
2021/09/21 18:11:22;;;;;;;18.57;12.20;;;;;;;;;;2625031;30;20434;-74
2021/09/21 18:13:49;;;;;;;13.37;11.10;;;;;;;;;;2625867;30;20383;-75
2021/09/21 18:16:50;;;;;;;10.43;8.50;;;;;;;;;;2626387;30;20462;-75
2021/09/21 18:19:25;;;;;;;12.40;10.50;;;;;;;;;;2624556;30;20894;-74
2021/09/21 18:22:10;;;;;;;11.53;8.80;;;;;;;;;;2632573;38;20426;-73
2021/09/21 18:24:37;;;;;;;11.17;7.50;;;;;;;;;;2626424;38;20394;-73
2021/09/21 18:27:03;;;;;;;10.00;6.33;;;;;;;;;;2625748;30;20944;-73
2021/09/21 18:29:29;;;;;;;6.97;6.30;;;;;;;;;;2625644;30;20386;-72
2021/09/21 18:31:56;;;;;;;7.47;6.03;;;;;;;;;;2643039;35;20391;-72
2021/09/21 18:34:22;;;;;;;14.83;9.83;;;;;;;;;;2624600;30;20393;-73
2021/09/21 18:36:48;;;;;;;6.23;5.63;;;;;;;;;;2643681;30;20421;-73
2021/09/21 18:39:14;;;;;;;19.10;15.50;;;;;;;;;;2624123;30;20371;-72
2021/09/21 18:41:41;;;;;;;31.07;26.27;;;;;;;;;;2624941;30;20422;-72
2021/09/21 18:44:07;;;;;;;168.40;102.70;;;;;;;;;;2623462;38;20370;-72
2021/09/21 18:46:33;;;;;;;89.77;55.93;;;;;;;;;;2624497;38;20474;-72
2021/09/21 18:48:59;;;;;;;54.17;34.83;;;;;;;;;;2623422;38;20379;-72
2021/09/21 18:51:25;;;;;;;19.60;13.30;;;;;;;;;;2624629;30;20367;-73